| time (UTC) | temp C | wind direction | speed KPH | gust KPH | rain 1hr cm | rain 24hr cm | rain mn cm | humidity % | barometer mb |
| 20260510162118 | 21 | 1 | 0.0 | 1.6 | 0.00 | 0.84 | 0.84 | 74 | 1008.4 |
| 20260510160848 | 20 | 1 | 0.0 | 3.2 | 0.00 | 0.84 | 0.84 | 73 | 1008.5 |
| 20260510155618 | 18 | 1 | 0.0 | 4.8 | 0.00 | 0.84 | 0.84 | 79 | 1008.7 |
| 20260510154348 | 17 | 1 | 0.0 | 4.8 | 0.00 | 0.84 | 0.84 | 89 | 1008.9 |
| 20260510151847 | 16 | 157 | 1.6 | 6.4 | 0.05 | 0.84 | 0.84 | 93 | 1009.0 |
| 20260510150617 | 15 | 181 | 3.2 | 6.4 | 0.18 | 0.84 | 0.84 | 94 | 1008.8 |
| 20260510145347 | 14 | 203 | 0.0 | 3.2 | 0.30 | 0.84 | 0.84 | 94 | 1010.0 |
| 20260510144117 | 13 | 203 | 0.0 | 6.4 | 0.84 | 0.84 | 0.84 | 94 | 1010.2 |
| 20260510142847 | 14 | 202 | 0.0 | 3.2 | 0.84 | 0.84 | 0.84 | 94 | 1010.5 |
| 20260510141617 | 13 | 203 | 0.0 | 1.6 | 0.71 | 0.71 | 0.71 | 94 | 1010.6 |
| 20260510140347 | 13 | 233 | 0.0 | 4.8 | 0.64 | 0.64 | 0.64 | 92 | 1011.2 |
| 20260510135117 | 15 | 18 | 0.0 | 24.1 | 0.46 | 0.46 | 0.46 | 85 | 1011.0 |
| 20260510133847 | 20 | 23 | 1.6 | 6.4 | 0.00 | 0.00 | 0.00 | 62 | 1008.6 |
| 20260510132617 | 22 | 23 | 0.0 | 4.8 | 0.00 | 0.00 | 0.00 | 47 | 1007.8 |
| 20260510131347 | 23 | 22 | 0.0 | 3.2 | 0.00 | 0.00 | 0.00 | 49 | 1008.0 |
| 20260510130117 | 22 | 15 | 8.0 | 12.9 | 0.00 | 0.00 | 0.00 | 45 | 1007.7 |
| 20260510124847 | 23 | 167 | 4.8 | 6.4 | 0.00 | 0.00 | 0.00 | 45 | 1007.6 |
| 20260510123617 | 25 | 181 | 0.0 | 6.4 | 0.00 | 0.00 | 0.00 | 43 | 1007.6 |
| 20260510122347 | 25 | 181 | 1.6 | 12.9 | 0.00 | 0.00 | 0.00 | 40 | 1008.0 |
| 20260510121117 | 24 | 184 | 3.2 | 9.7 | 0.00 | 0.00 | 0.00 | 41 | 1008.0 |
| 20260510115847 | 26 | 178 | 0.0 | 6.4 | 0.00 | 0.00 | 0.00 | 38 | 1008.5 |
| 20260510114617 | 26 | 169 | 3.2 | 9.7 | 0.00 | 0.00 | 0.00 | 39 | 1008.2 |
| 20260510113347 | 27 | 69 | 0.0 | 6.4 | 0.00 | 0.00 | 0.00 | 40 | 1008.4 |
| 20260510112117 | 26 | 15 | 1.6 | 9.7 | 0.00 | 0.00 | 0.00 | 41 | 1008.7 |
| 20260510110847 | 26 | 171 | 3.2 | 9.7 | 0.00 | 0.00 | 0.00 | 41 | 1009.1 |
| 20260510105617 | 24 | 139 | 0.0 | 4.8 | 0.00 | 0.00 | 0.00 | 45 | 1009.2 |
| 20260510104347 | 23 | 121 | 0.0 | 4.8 | 0.00 | 0.00 | 0.00 | 46 | 1009.2 |
| 20260510103117 | 25 | 138 | 0.0 | 9.7 | 0.00 | 0.00 | 0.00 | 45 | 1009.5 |
| 20260510101847 | 21 | 1 | 3.2 | 6.4 | 0.00 | 0.00 | 0.00 | 51 | 1009.4 |
| 20260510100617 | 22 | 7 | 0.0 | 9.7 | 0.00 | 0.00 | 0.00 | 50 | 1009.6 |
| 20260510095347 | 22 | 18 | 0.0 | 12.9 | 0.00 | 0.00 | 0.00 | 50 | 1009.6 |
| 20260510094117 | 22 | 38 | 0.0 | 9.7 | 0.00 | 0.00 | 0.00 | 50 | 1009.8 |
| 20260510092847 | 21 | 351 | 3.2 | 16.1 | 0.00 | 0.00 | 0.00 | 50 | 1009.6 |
| 20260510091617 | 22 | 5 | 0.0 | 14.5 | 0.00 | 0.00 | 0.00 | 49 | 1009.8 |
| 20260510090347 | 21 | 6 | 0.0 | 9.7 | 0.00 | 0.00 | 0.00 | 50 | 1009.6 |
| 20260510085117 | 21 | 24 | 0.0 | 14.5 | 0.00 | 0.00 | 0.00 | 52 | 1009.5 |
| 20260510083847 | 20 | 356 | 3.2 | 20.9 | 0.00 | 0.00 | 0.00 | 53 | 1009.6 |
| 20260510082619 | 20 | 16 | 0.0 | 12.9 | 0.00 | 0.00 | 0.00 | 53 | 1009.6 |
| 20260510081346 | 18 | 175 | 1.6 | 9.7 | 0.00 | 0.00 | 0.00 | 59 | 1009.5 |
| 20260510080116 | 19 | 164 | 0.0 | 6.4 | 0.00 | 0.00 | 0.00 | 61 | 1009.3 |
| 20260510074847 | 20 | 176 | 0.0 | 6.4 | 0.00 | 0.00 | 0.00 | 55 | 1009.5 |
| 20260510073616 | 20 | 169 | 1.6 | 12.9 | 0.00 | 0.00 | 0.00 | 55 | 1009.3 |
| 20260510072346 | 19 | 177 | 0.0 | 14.5 | 0.00 | 0.00 | 0.00 | 62 | 1009.0 |
| 20260510071116 | 18 | 175 | 8.0 | 14.5 | 0.00 | 0.00 | 0.00 | 64 | 1009.2 |
| 20260510065846 | 18 | 168 | 4.8 | 12.9 | 0.00 | 0.00 | 0.00 | 64 | 1009.2 |
| 20260510064616 | 18 | 158 | 3.2 | 19.3 | 0.00 | 0.00 | 0.00 | 66 | 1009.1 |
| 20260510063347 | 17 | 168 | 4.8 | 16.1 | 0.00 | 0.00 | 0.00 | 68 | 1008.7 |
| 20260510062116 | 17 | 147 | 9.7 | 14.5 | 0.00 | 0.00 | 0.00 | 69 | 1008.7 |
| 20260510060846 | 15 | 181 | 0.0 | 4.8 | 0.00 | 0.00 | 0.00 | 76 | 1008.7 |
| 20260510055616 | 13 | 181 | 0.0 | 4.8 | 0.00 | 0.00 | 0.00 | 81 | 1008.6 |
| 20260510054346 | 13 | 181 | 0.0 | 3.2 | 0.00 | 0.00 | 0.00 | 81 | 1008.5 |
| 20260510053116 | 13 | 181 | 0.0 | 3.2 | 0.00 | 0.00 | 0.00 | 80 | 1008.3 |
| 20260510051846 | 13 | 181 | 0.0 | 3.2 | 0.00 | 0.00 | 0.00 | 82 | 1008.5 |
| 20260510050616 | 13 | 175 | 0.0 | 3.2 | 0.00 | 0.00 | 0.00 | 82 | 1008.3 |
| 20260510045346 | 13 | 173 | 4.8 | 6.4 | 0.00 | 0.00 | 0.00 | 81 | 1008.5 |
| 20260510044116 | 13 | 181 | 0.0 | 1.6 | 0.00 | 0.00 | 0.00 | 82 | 1008.3 |
| 20260510042846 | 14 | 181 | 0.0 | 3.2 | 0.00 | 0.00 | 0.00 | 81 | 1008.5 |
| 20260510041616 | 14 | 181 | 0.0 | 3.2 | 0.00 | 0.00 | 0.00 | 81 | 1008.3 |
| 20260510040346 | 14 | 181 | 0.0 | 3.2 | 0.00 | 0.00 | 0.00 | 81 | 1008.7 |
| 20260510035116 | 15 | 181 | 0.0 | 4.8 | 0.00 | 0.00 | 0.00 | 79 | 1008.6 |
| 20260510033846 | 15 | 181 | 0.0 | 3.2 | 0.00 | 0.00 | 0.00 | 79 | 1008.6 |
| 20260510032616 | 15 | 181 | 0.0 | 3.2 | 0.00 | 0.00 | 0.00 | 77 | 1008.5 |
| 20260510031346 | 16 | 181 | 0.0 | 4.8 | 0.00 | 0.00 | 0.00 | 75 | 1008.4 |
| 20260510030116 | 16 | 181 | 0.0 | 6.4 | 0.00 | 0.00 | 0.00 | 73 | 1008.4 |
| 20260510024846 | 16 | 165 | 3.2 | 9.7 | 0.00 | 0.00 | 0.00 | 72 | 1008.2 |
| 20260510023616 | 16 | 165 | 4.8 | 14.5 | 0.00 | 0.00 | 0.00 | 71 | 1008.2 |
| 20260510022346 | 16 | 177 | 1.6 | 4.8 | 0.00 | 0.00 | 0.00 | 71 | 1008.4 |
| 20260510021116 | 17 | 181 | 3.2 | 9.7 | 0.00 | 0.00 | 0.00 | 71 | 1008.1 |
| 20260510015846 | 16 | 181 | 0.0 | 4.8 | 0.00 | 0.00 | 0.00 | 74 | 1008.4 |
| 20260510014616 | 16 | 181 | 0.0 | 6.4 | 0.00 | 0.00 | 0.00 | 72 | 1008.4 |
| 20260510013346 | 16 | 199 | 0.0 | 4.8 | 0.00 | 0.00 | 0.00 | 76 | 1008.3 |
| 20260510012116 | 16 | 179 | 0.0 | 12.9 | 0.00 | 0.00 | 0.00 | 74 | 1008.5 |
| 20260510010846 | 16 | 181 | 0.0 | 3.2 | 0.00 | 0.00 | 0.00 | 75 | 1008.7 |
| 20260510005616 | 16 | 203 | 1.6 | 6.4 | 0.00 | 0.00 | 0.00 | 72 | 1008.7 |
| 20260510004346 | 16 | 181 | 1.6 | 6.4 | 0.00 | 0.00 | 0.00 | 71 | 1008.8 |
| 20260510003116 | 17 | 167 | 8.0 | 16.1 | 0.00 | 0.00 | 0.00 | 69 | 1008.9 |
| 20260510001846 | 17 | 177 | 6.4 | 14.5 | 0.00 | 0.00 | 0.00 | 71 | 1008.4 |
| 20260510000615 | 16 | 181 | 1.6 | 6.4 | 0.00 | 0.00 | 0.00 | 72 | 1008.8 |
| 20260509235346 | 16 | 181 | 0.0 | 4.8 | 0.00 | 0.00 | 0.00 | 71 | 1008.7 |
| 20260509234115 | 17 | 181 | 1.6 | 4.8 | 0.00 | 0.00 | 0.00 | 68 | 1008.4 |
| 20260509232845 | 17 | 178 | 0.0 | 12.9 | 0.00 | 0.00 | 0.00 | 67 | 1008.7 |
| 20260509231616 | 17 | 172 | 0.0 | 9.7 | 0.00 | 0.00 | 0.00 | 66 | 1008.5 |
| 20260509230345 | 18 | 63 | 1.6 | 19.3 | 0.00 | 0.00 | 0.00 | 65 | 1008.7 |
| 20260509225116 | 17 | 174 | 4.8 | 16.1 | 0.00 | 0.00 | 0.00 | 69 | 1008.6 |
| 20260509223845 | 17 | 181 | 0.0 | 6.4 | 0.00 | 0.00 | 0.00 | 73 | 1008.7 |
| 20260509222615 | 18 | 176 | 4.8 | 12.9 | 0.00 | 0.00 | 0.00 | 67 | 1008.6 |
| 20260509221345 | 17 | 173 | 1.6 | 9.7 | 0.00 | 0.00 | 0.00 | 69 | 1008.7 |
| 20260509220115 | 17 | 169 | 1.6 | 14.5 | 0.00 | 0.00 | 0.00 | 69 | 1008.6 |
| 20260509214845 | 18 | 179 | 1.6 | 9.7 | 0.00 | 0.00 | 0.00 | 69 | 1008.9 |
| 20260509213615 | 18 | 170 | 4.8 | 16.1 | 0.00 | 0.00 | 0.00 | 67 | 1008.7 |
| 20260509212345 | 18 | 164 | 4.8 | 20.9 | 0.00 | 0.00 | 0.00 | 67 | 1008.8 |
| 20260509211115 | 17 | 164 | 3.2 | 12.9 | 0.00 | 0.00 | 0.00 | 70 | 1008.8 |
| 20260509205845 | 18 | 155 | 3.2 | 12.9 | 0.00 | 0.00 | 0.00 | 68 | 1008.7 |
| 20260509204615 | 18 | 141 | 3.2 | 17.7 | 0.00 | 0.00 | 0.00 | 66 | 1008.7 |
| 20260509203345 | 18 | 171 | 4.8 | 14.5 | 0.00 | 0.00 | 0.00 | 64 | 1008.9 |
| 20260509202115 | 18 | 159 | 1.6 | 9.7 | 0.00 | 0.00 | 0.00 | 65 | 1008.9 |
| 20260509200845 | 18 | 167 | 3.2 | 14.5 | 0.00 | 0.00 | 0.00 | 63 | 1008.3 |
| 20260509195615 | 19 | 157 | 8.0 | 16.1 | 0.00 | 0.00 | 0.00 | 63 | 1008.1 |
| 20260509194345 | 19 | 149 | 1.6 | 19.3 | 0.00 | 0.00 | 0.00 | 63 | 1007.8 |
| 20260509193115 | 20 | 150 | 0.0 | 9.7 | 0.00 | 0.00 | 0.00 | 61 | 1007.8 |
| 20260509191845 | 20 | 167 | 8.0 | 17.7 | 0.00 | 0.00 | 0.00 | 60 | 1008.0 |
| 20260509190615 | 20 | 152 | 4.8 | 12.9 | 0.00 | 0.00 | 0.00 | 61 | 1007.9 |
| 20260509185345 | 20 | 155 | 4.8 | 19.3 | 0.00 | 0.00 | 0.00 | 60 | 1007.8 |
| 20260509184115 | 21 | 158 | 9.7 | 19.3 | 0.00 | 0.00 | 0.00 | 59 | 1007.6 |
| 20260509182845 | 21 | 177 | 4.8 | 9.7 | 0.00 | 0.00 | 0.00 | 60 | 1007.8 |
| 20260509181615 | 21 | 148 | 4.8 | 9.7 | 0.00 | 0.00 | 0.00 | 59 | 1007.6 |
| 20260509180345 | 21 | 157 | 4.8 | 14.5 | 0.00 | 0.00 | 0.00 | 57 | 1007.6 |
| 20260509175115 | 21 | 172 | 1.6 | 12.9 | 0.00 | 0.00 | 0.00 | 55 | 1007.4 |
| 20260509173845 | 22 | 173 | 4.8 | 19.3 | 0.00 | 0.00 | 0.00 | 53 | 1007.3 |
| 20260509172615 | 22 | 164 | 4.8 | 16.1 | 0.00 | 0.00 | 0.00 | 51 | 1007.4 |
| 20260509171345 | 22 | 141 | 1.6 | 19.3 | 0.00 | 0.00 | 0.00 | 50 | 1007.3 |
| 20260509170115 | 22 | 124 | 8.0 | 24.1 | 0.00 | 0.10 | 0.00 | 50 | 1007.5 |
| 20260509164845 | 24 | 158 | 0.0 | 20.9 | 0.00 | 0.18 | 0.00 | 49 | 1007.1 |